24 Datensätze sind 1 Tag. Aufzeichnung ab 07. Oktober 2014.
Werte (Summe von Anzahl und Position darf nicht größer sein als mögliche Datensätze).
Anzahl:
Position: Summe:
\ 21258 Datensätze möglich.
  20 letzte Aufzeichnungen
gezeigte Daten 20 ab Position 1    Summe der Auswahl = 21
24.05.2017 / 14:30 Uhr bis 25.05.2017 / 09:29 Uhr
Regenmenge 0 Liter

Datum/Zeit Temp. Taupunkt Luftfeuchte Wind speed Wind böhe Wind Temp. Regen Summe Luftdruck
25.05.2017 | 10:29 Uhr 16.4C 8.6C 60% 5.1 kmh 0.7kmh 18.7C 0.0mm 1003.0986mBar/hPa
25.05.2017 | 09:29 Uhr 15.5C 9.2C 66% 0.0 kmh 0.6kmh 18.8C 0.0mm 1003.4736mBar/hPa
25.05.2017 | 08:29 Uhr 14.7C 8.9C 68% 8.1 kmh 0.3kmh 15.8C 0.0mm 1003.4111mBar/hPa
25.05.2017 | 07:29 Uhr 13.9C 8.5C 70% 0.1 kmh 0.3kmh 15.1C 0.0mm 1003.3486mBar/hPa
25.05.2017 | 06:29 Uhr 12.6C 7.7C 72% 0.0 kmh 0.2kmh 12.8C 0.0mm 1003.4111mBar/hPa
25.05.2017 | 05:29 Uhr 11.5C 7.2C 75% 0.0 kmh 0.0kmh 10.9C 0.0mm 1003.2236mBar/hPa
25.05.2017 | 04:30 Uhr 10.7C 6.6C 76% 0.0 kmh 0.0kmh 9.2C 0.0mm 1003.2236mBar/hPa
25.05.2017 | 03:30 Uhr 10.7C 6.3C 74% 0.0 kmh 0.0kmh 8.9C 0.0mm 1002.5361mBar/hPa
25.05.2017 | 02:30 Uhr 11.1C 6.8C 75% 0.0 kmh 0.0kmh 9.6C 0.0mm 1002.4111mBar/hPa
25.05.2017 | 01:30 Uhr 11.5C 6.8C 73% 0.0 kmh 0.0kmh 9.5C 0.0mm 1002.2861mBar/hPa
25.05.2017 | 00:30 Uhr 12.0C 7.5C 74% 0.0 kmh 0.0kmh 10.5C 0.0mm 1002.9111mBar/hPa
24.05.2017 | 23:30 Uhr 12.2C 7.7C 74% 0.0 kmh 0.0kmh 10.8C 0.0mm 1002.4736mBar/hPa
24.05.2017 | 22:30 Uhr 12.4C 7.5C 72% 0.0 kmh 0.0kmh 10.9C 0.0mm 1002.4736mBar/hPa
24.05.2017 | 21:30 Uhr 12.7C 7.8C 72% 0.0 kmh 0.0kmh 10.8C 0.0mm 1002.7236mBar/hPa
24.05.2017 | 20:30 Uhr 13.2C 8.1C 71% 0.0 kmh 0.0kmh 11.7C 0.0mm 1002.4111mBar/hPa
24.05.2017 | 19:30 Uhr 13.9C 8.1C 68% 0.0 kmh 0.0kmh 12.0C 0.0mm 1002.0986mBar/hPa
24.05.2017 | 18:30 Uhr 14.6C 7.6C 63% 0.1 kmh 0.4kmh 13.0C 0.0mm 1001.5986mBar/hPa
24.05.2017 | 17:30 Uhr 15.9C 6.6C 54% 0.1 kmh 0.5kmh 15.9C 0.0mm 1000.6611mBar/hPa
24.05.2017 | 16:30 Uhr 16.1C 6.0C 51% 1.2 kmh 1.3kmh 15.5C 0.0mm 1000.4111mBar/hPa
24.05.2017 | 15:30 Uhr 16.5C 6.0C 50% 0.0 kmh 0.8kmh 16.2C 0.0mm 1000.4111mBar/hPa